createdAt,value
2023-12-17T00:00:02.174Z,36.60
2023-12-17T00:00:33.711Z,36.71
2023-12-17T00:01:05.199Z,36.34
2023-12-17T00:01:36.670Z,36.62
2023-12-17T00:02:08.118Z,36.75
2023-12-17T00:02:39.629Z,36.52
2023-12-17T00:03:18.761Z,36.32
2023-12-17T00:03:52.129Z,36.63
2023-12-17T00:04:23.763Z,36.60
2023-12-17T00:04:55.253Z,36.69
2023-12-17T00:05:26.745Z,36.78
2023-12-17T00:05:58.291Z,36.31
2023-12-17T00:06:29.864Z,36.64
2023-12-17T00:07:01.418Z,36.31
2023-12-17T00:07:32.860Z,36.36
2023-12-17T00:08:04.314Z,36.64
2023-12-17T00:08:35.845Z,37.08
2023-12-17T00:09:07.391Z,36.67
2023-12-17T00:09:38.861Z,36.76
2023-12-17T00:10:10.298Z,36.73
2023-12-17T00:10:41.733Z,36.89
2023-12-17T00:11:13.169Z,36.39
2023-12-17T00:11:44.708Z,36.88
2023-12-17T00:12:16.221Z,36.92
2023-12-17T00:12:47.692Z,36.85
2023-12-17T00:13:19.197Z,36.80
2023-12-17T00:13:50.665Z,36.75
2023-12-17T00:14:22.127Z,36.87
2023-12-17T00:14:53.596Z,36.91
2023-12-17T00:15:25.062Z,36.70
2023-12-17T00:15:56.500Z,36.79
2023-12-17T00:16:27.945Z,36.47
2023-12-17T00:16:59.414Z,36.63
2023-12-17T00:17:30.892Z,36.99
2023-12-17T00:18:02.615Z,37.11
2023-12-17T00:18:34.398Z,37.32
2023-12-17T00:19:06.137Z,36.64
2023-12-17T00:19:37.801Z,36.79
2023-12-17T00:20:09.271Z,36.51
2023-12-17T00:20:40.795Z,36.71
2023-12-17T00:21:12.273Z,36.95
2023-12-17T00:21:43.705Z,36.83
2023-12-17T00:22:15.142Z,37.03
2023-12-17T00:22:46.697Z,37.11
2023-12-17T00:23:18.194Z,36.64
2023-12-17T00:23:49.683Z,36.84
2023-12-17T00:24:21.197Z,36.64
2023-12-17T00:24:52.713Z,36.77
2023-12-17T00:25:24.158Z,36.76
2023-12-17T00:25:55.593Z,36.81
2023-12-17T00:26:27.013Z,37.10
2023-12-17T00:26:58.834Z,37.04
2023-12-17T00:27:30.459Z,36.65
2023-12-17T00:28:01.995Z,36.84
2023-12-17T00:28:33.425Z,36.95
2023-12-17T00:29:04.863Z,36.65
2023-12-17T00:29:36.289Z,36.79
2023-12-17T00:30:07.902Z,36.58
2023-12-17T00:30:39.488Z,36.98
2023-12-17T00:31:11.146Z,36.90
2023-12-17T00:31:42.631Z,36.87
2023-12-17T00:32:14.064Z,36.97
2023-12-17T00:32:45.708Z,37.05
2023-12-17T00:33:17.518Z,37.02
2023-12-17T00:33:49.491Z,37.18
2023-12-17T00:34:21.236Z,36.59
2023-12-17T00:34:52.797Z,37.14
2023-12-17T00:35:24.280Z,36.92
2023-12-17T00:35:55.812Z,36.94
2023-12-17T00:36:27.311Z,37.22
2023-12-17T00:36:58.775Z,36.89
2023-12-17T00:37:30.301Z,37.01
2023-12-17T00:38:01.736Z,36.88
2023-12-17T00:38:33.190Z,36.78
2023-12-17T00:39:04.686Z,37.14
2023-12-17T00:39:36.179Z,36.67
2023-12-17T00:40:07.636Z,36.94
2023-12-17T00:40:39.087Z,37.05
2023-12-17T00:41:10.519Z,36.69
2023-12-17T00:41:42.107Z,36.87
2023-12-17T00:42:13.673Z,36.65
2023-12-17T00:42:45.129Z,36.95
2023-12-17T00:43:16.567Z,36.84
2023-12-17T00:43:47.991Z,37.01
2023-12-17T00:44:19.448Z,36.81
2023-12-17T00:44:50.952Z,36.84
2023-12-17T00:45:22.460Z,37.13
2023-12-17T00:45:53.931Z,36.57
2023-12-17T00:46:25.403Z,36.70
2023-12-17T00:46:56.864Z,37.01
2023-12-17T00:47:28.359Z,36.79
2023-12-17T00:47:59.933Z,36.82
2023-12-17T00:48:31.629Z,36.71
2023-12-17T00:49:03.364Z,37.01
2023-12-17T00:49:34.984Z,36.92
2023-12-17T00:50:06.479Z,37.03
2023-12-17T00:50:37.928Z,36.68
2023-12-17T00:51:09.439Z,36.66
2023-12-17T00:51:40.938Z,37.37
2023-12-17T00:52:12.372Z,37.12
2023-12-17T00:52:43.800Z,36.69
2023-12-17T00:53:15.234Z,37.13
2023-12-17T00:53:46.711Z,37.12
2023-12-17T00:54:18.280Z,36.96
2023-12-17T00:54:49.762Z,36.97
2023-12-17T00:55:21.195Z,37.25
2023-12-17T00:55:52.672Z,36.97
2023-12-17T00:56:24.168Z,37.03
2023-12-17T00:56:55.643Z,36.90
2023-12-17T00:57:27.139Z,37.33
2023-12-17T00:57:58.628Z,37.16
2023-12-17T00:58:30.068Z,36.63
2023-12-17T00:59:01.517Z,37.12
2023-12-17T00:59:32.946Z,37.08
2023-12-17T01:00:04.448Z,36.94
2023-12-17T01:00:42.913Z,37.40
2023-12-17T01:01:21.179Z,37.00
2023-12-17T01:01:52.660Z,37.36
2023-12-17T01:02:24.206Z,37.35
2023-12-17T01:02:55.781Z,37.22
2023-12-17T01:03:27.330Z,36.95
2023-12-17T01:03:59.034Z,36.95
2023-12-17T01:04:30.530Z,36.95
2023-12-17T01:05:02.031Z,36.89
2023-12-17T01:05:33.593Z,37.08
2023-12-17T01:06:05.209Z,37.43
2023-12-17T01:06:36.753Z,36.92
2023-12-17T01:07:08.215Z,37.37
2023-12-17T01:07:39.908Z,37.03
2023-12-17T01:08:11.470Z,37.20
2023-12-17T01:08:42.946Z,37.40
2023-12-17T01:09:14.436Z,36.93
2023-12-17T01:09:45.910Z,36.65
2023-12-17T01:10:17.470Z,37.02
2023-12-17T01:10:48.937Z,36.94
2023-12-17T01:11:20.381Z,36.58
2023-12-17T01:11:51.885Z,37.07
2023-12-17T01:12:23.361Z,37.33
2023-12-17T01:12:54.867Z,37.25
2023-12-17T01:13:29.081Z,37.40
2023-12-17T01:14:01.601Z,37.20
2023-12-17T01:14:33.067Z,37.44
2023-12-17T01:15:04.735Z,36.85
2023-12-17T01:15:36.378Z,36.94
2023-12-17T01:16:07.863Z,37.16
2023-12-17T01:16:39.329Z,37.34
2023-12-17T01:17:10.779Z,37.08
2023-12-17T01:17:42.464Z,37.27
2023-12-17T01:18:14.250Z,37.03
2023-12-17T01:18:45.826Z,37.04
2023-12-17T01:19:17.457Z,37.30
2023-12-17T01:19:49.215Z,37.06
2023-12-17T01:20:20.827Z,37.01
2023-12-17T01:20:52.298Z,37.32
2023-12-17T01:21:23.780Z,37.15
2023-12-17T01:21:55.251Z,37.36
2023-12-17T01:22:26.715Z,37.34
2023-12-17T01:22:58.142Z,36.76
2023-12-17T01:23:29.588Z,37.25
2023-12-17T01:24:01.077Z,37.37
2023-12-17T01:24:32.573Z,37.36
2023-12-17T01:25:04.062Z,37.41
2023-12-17T01:25:35.494Z,37.17
2023-12-17T01:26:06.930Z,37.31
2023-12-17T01:26:38.372Z,37.44
2023-12-17T01:27:09.898Z,37.28
2023-12-17T01:27:41.628Z,37.69
2023-12-17T01:28:13.294Z,37.16
2023-12-17T01:28:44.739Z,37.18
2023-12-17T01:29:16.242Z,36.52
2023-12-17T01:29:47.717Z,37.43
2023-12-17T01:30:19.266Z,37.24
2023-12-17T01:30:50.996Z,37.50
2023-12-17T01:31:22.568Z,36.96
2023-12-17T01:31:54.012Z,37.35
2023-12-17T01:32:25.449Z,37.26
2023-12-17T01:32:57.024Z,37.21
2023-12-17T01:33:28.678Z,37.18
2023-12-17T01:34:00.409Z,37.35
2023-12-17T01:34:32.107Z,37.68
2023-12-17T01:35:03.631Z,37.26
2023-12-17T01:35:35.070Z,37.30
2023-12-17T01:36:06.529Z,37.78
2023-12-17T01:36:37.980Z,37.94
2023-12-17T01:37:09.426Z,38.01
2023-12-17T01:37:41.094Z,37.52
2023-12-17T01:38:12.674Z,37.65
2023-12-17T01:38:44.251Z,37.42
2023-12-17T01:39:15.838Z,37.54
2023-12-17T01:39:47.343Z,37.60
2023-12-17T01:40:18.796Z,37.58
2023-12-17T01:40:50.233Z,37.64
2023-12-17T01:41:21.675Z,37.81
2023-12-17T01:41:53.119Z,37.88
2023-12-17T01:42:24.599Z,37.67
2023-12-17T01:42:56.036Z,37.40
2023-12-17T01:43:27.524Z,37.99
2023-12-17T01:43:58.994Z,37.74
2023-12-17T01:44:30.469Z,37.68
2023-12-17T01:45:02.021Z,37.90
2023-12-17T01:45:33.508Z,37.55
2023-12-17T01:46:05.017Z,37.91
2023-12-17T01:46:36.465Z,37.24
2023-12-17T01:47:07.915Z,37.87
2023-12-17T01:47:39.735Z,36.97
2023-12-17T01:48:11.483Z,37.65
2023-12-17T01:48:43.120Z,37.66
2023-12-17T01:49:14.831Z,37.87
2023-12-17T01:49:46.603Z,37.80
2023-12-17T01:50:18.125Z,37.95
2023-12-17T01:50:49.556Z,37.60
2023-12-17T01:51:21.166Z,37.73
2023-12-17T01:51:52.667Z,38.04
2023-12-17T01:52:24.103Z,37.33
2023-12-17T01:52:55.651Z,37.96
2023-12-17T01:53:27.139Z,37.81
2023-12-17T01:53:58.632Z,37.78
2023-12-17T01:54:30.129Z,37.76
2023-12-17T01:55:01.568Z,37.46
2023-12-17T01:55:33.025Z,37.96
2023-12-17T01:56:04.457Z,37.46
2023-12-17T01:56:35.898Z,37.48
2023-12-17T01:57:07.367Z,37.28
2023-12-17T01:57:39.181Z,37.69
2023-12-17T01:58:10.758Z,37.68
2023-12-17T01:58:42.201Z,37.77
2023-12-17T01:59:13.637Z,37.56
2023-12-17T01:59:45.105Z,37.36
2023-12-17T02:00:16.598Z,37.73
2023-12-17T02:00:48.086Z,37.69
2023-12-17T02:01:19.598Z,37.92
2023-12-17T02:01:51.044Z,37.36
2023-12-17T02:02:22.568Z,37.93
2023-12-17T02:02:54.075Z,37.87
2023-12-17T02:03:25.700Z,38.13
2023-12-17T02:03:57.388Z,37.63
2023-12-17T02:04:28.861Z,37.73
2023-12-17T02:05:00.290Z,38.20
2023-12-17T02:05:31.800Z,37.38
2023-12-17T02:06:03.271Z,37.78
2023-12-17T02:06:34.955Z,37.57
2023-12-17T02:07:06.615Z,37.63
2023-12-17T02:07:38.402Z,37.63
2023-12-17T02:08:10.015Z,38.22
2023-12-17T02:08:41.510Z,37.58
2023-12-17T02:09:13.029Z,37.67
2023-12-17T02:09:44.463Z,37.42
2023-12-17T02:10:15.901Z,37.52
2023-12-17T02:10:47.351Z,37.33
2023-12-17T02:11:18.793Z,37.88
2023-12-17T02:11:50.363Z,37.76
2023-12-17T02:12:21.998Z,37.14
2023-12-17T02:12:53.490Z,37.47
2023-12-17T02:13:24.933Z,37.52
2023-12-17T02:13:56.367Z,37.46
2023-12-17T02:14:27.806Z,37.83
2023-12-17T02:14:59.290Z,37.90
2023-12-17T02:15:30.754Z,37.74
2023-12-17T02:16:02.260Z,38.04
2023-12-17T02:16:33.789Z,37.69
2023-12-17T02:17:05.246Z,38.18
2023-12-17T02:17:36.774Z,37.87
2023-12-17T02:18:08.402Z,37.93
2023-12-17T02:18:40.036Z,37.63
2023-12-17T02:19:11.716Z,37.93
2023-12-17T02:19:43.308Z,37.90
2023-12-17T02:20:14.819Z,37.70
2023-12-17T02:20:46.310Z,37.50
2023-12-17T02:21:17.887Z,37.50
2023-12-17T02:21:49.354Z,38.05
2023-12-17T02:22:20.805Z,37.95
2023-12-17T02:22:52.255Z,37.50
2023-12-17T02:23:23.686Z,37.88
2023-12-17T02:23:55.150Z,37.63
2023-12-17T02:24:26.683Z,38.20
2023-12-17T02:24:58.164Z,37.75
2023-12-17T02:25:29.610Z,38.00
2023-12-17T02:26:01.059Z,37.95
2023-12-17T02:26:32.573Z,38.03
2023-12-17T02:27:04.053Z,38.30
2023-12-17T02:27:35.513Z,37.98
2023-12-17T02:28:06.963Z,37.73
2023-12-17T02:28:38.408Z,38.12
2023-12-17T02:29:09.838Z,38.18
2023-12-17T02:29:41.317Z,38.31
2023-12-17T02:30:12.909Z,38.26
2023-12-17T02:30:44.606Z,38.00
2023-12-17T02:31:16.235Z,38.06
2023-12-17T02:31:47.696Z,37.63
2023-12-17T02:32:19.130Z,37.78
2023-12-17T02:32:50.654Z,37.71
2023-12-17T02:33:22.232Z,38.21
2023-12-17T02:33:53.823Z,37.67
2023-12-17T02:34:25.468Z,37.98
2023-12-17T02:34:56.970Z,38.11
2023-12-17T02:35:28.459Z,37.52
2023-12-17T02:35:59.982Z,37.74
2023-12-17T02:36:31.420Z,37.93
2023-12-17T02:37:02.886Z,37.72
2023-12-17T02:37:34.357Z,37.83
2023-12-17T02:38:05.792Z,37.94
2023-12-17T02:38:37.233Z,37.72
2023-12-17T02:39:08.702Z,37.88
2023-12-17T02:39:40.150Z,38.02
2023-12-17T02:40:11.640Z,38.10
2023-12-17T02:40:43.123Z,37.61
2023-12-17T02:41:14.547Z,38.00
2023-12-17T02:41:46.033Z,38.45
2023-12-17T02:42:17.536Z,37.96
2023-12-17T02:42:48.975Z,38.07
2023-12-17T02:43:20.422Z,37.88
2023-12-17T02:43:51.867Z,37.90
2023-12-17T02:44:23.296Z,37.91
2023-12-17T02:44:54.814Z,37.99
2023-12-17T02:45:26.435Z,38.03
2023-12-17T02:45:57.939Z,38.10
2023-12-17T02:46:29.375Z,38.17
2023-12-17T02:47:00.862Z,38.15
2023-12-17T02:47:32.336Z,38.13
2023-12-17T02:48:03.930Z,37.85
2023-12-17T02:48:35.562Z,38.30
2023-12-17T02:49:07.156Z,38.26
2023-12-17T02:49:38.846Z,37.75
2023-12-17T02:50:10.455Z,38.58
2023-12-17T02:50:41.874Z,38.12
2023-12-17T02:51:13.345Z,37.58
2023-12-17T02:51:44.811Z,38.10
2023-12-17T02:52:16.244Z,37.79
2023-12-17T02:52:47.689Z,38.15
2023-12-17T02:53:19.122Z,37.74
2023-12-17T02:53:50.708Z,38.08
2023-12-17T02:54:22.272Z,37.55
2023-12-17T02:54:53.769Z,38.01
2023-12-17T02:55:25.203Z,37.67
2023-12-17T02:55:56.678Z,37.69
2023-12-17T02:56:28.119Z,38.16
2023-12-17T02:56:59.605Z,38.02
2023-12-17T02:57:31.085Z,38.05
2023-12-17T02:58:02.517Z,38.03
2023-12-17T02:58:33.952Z,38.18
2023-12-17T02:59:05.441Z,38.00
2023-12-17T02:59:36.871Z,37.83
2023-12-17T03:00:08.474Z,37.81
2023-12-17T03:00:39.995Z,37.94
2023-12-17T03:01:11.499Z,38.01
2023-12-17T03:01:42.950Z,37.86
2023-12-17T03:02:14.396Z,37.96
2023-12-17T03:02:45.952Z,38.12
2023-12-17T03:03:17.562Z,37.98
2023-12-17T03:03:49.261Z,38.05
2023-12-17T03:04:20.811Z,37.58
2023-12-17T03:04:52.338Z,37.89
2023-12-17T03:05:23.848Z,37.78
2023-12-17T03:05:55.338Z,37.82
2023-12-17T03:06:26.816Z,37.94
2023-12-17T03:06:58.268Z,38.16
2023-12-17T03:07:29.697Z,37.90
2023-12-17T03:08:01.150Z,37.81
2023-12-17T03:08:32.672Z,37.98
2023-12-17T03:09:04.183Z,37.72
2023-12-17T03:09:35.734Z,38.08
2023-12-17T03:10:07.195Z,38.03
2023-12-17T03:10:38.657Z,37.82
2023-12-17T03:11:10.097Z,37.90
2023-12-17T03:11:41.553Z,37.79
2023-12-17T03:12:13.062Z,38.32
2023-12-17T03:12:44.516Z,37.69
2023-12-17T03:13:16.000Z,38.09
2023-12-17T03:13:47.452Z,38.26
2023-12-17T03:14:18.875Z,38.18
2023-12-17T03:14:50.360Z,38.09
2023-12-17T03:15:21.939Z,37.77
2023-12-17T03:15:53.398Z,38.11
2023-12-17T03:16:24.832Z,38.22
2023-12-17T03:16:56.287Z,37.92
2023-12-17T03:17:27.749Z,38.25
2023-12-17T03:17:59.347Z,37.73
2023-12-17T03:18:31.040Z,37.79
2023-12-17T03:19:02.698Z,37.93
2023-12-17T03:19:34.274Z,37.93
2023-12-17T03:20:05.746Z,37.81
2023-12-17T03:20:37.199Z,38.00
2023-12-17T03:21:08.792Z,37.76
2023-12-17T03:21:40.282Z,37.93
2023-12-17T03:22:11.722Z,38.10
2023-12-17T03:22:43.244Z,38.02
2023-12-17T03:23:14.754Z,38.11
2023-12-17T03:23:46.211Z,37.78
2023-12-17T03:24:17.707Z,38.23
2023-12-17T03:24:49.176Z,38.02
2023-12-17T03:25:20.854Z,38.10
2023-12-17T03:25:52.357Z,38.21
2023-12-17T03:26:23.819Z,38.11
2023-12-17T03:26:55.294Z,38.06
2023-12-17T03:27:26.937Z,38.12
2023-12-17T03:27:58.451Z,38.11
2023-12-17T03:28:29.888Z,37.86
2023-12-17T03:29:01.324Z,38.39
2023-12-17T03:29:32.888Z,38.15
2023-12-17T03:30:04.430Z,38.26
2023-12-17T03:30:36.200Z,37.60
2023-12-17T03:31:07.762Z,37.66
2023-12-17T03:31:39.244Z,38.00
2023-12-17T03:32:10.811Z,38.28
2023-12-17T03:32:42.426Z,38.22
2023-12-17T03:33:14.111Z,37.73
2023-12-17T03:33:45.884Z,37.92
2023-12-17T03:34:17.552Z,37.75
2023-12-17T03:34:49.074Z,37.90
2023-12-17T03:35:20.550Z,38.21
2023-12-17T03:35:52.005Z,37.76
2023-12-17T03:36:23.460Z,38.00
2023-12-17T03:36:54.935Z,38.26
2023-12-17T03:37:26.484Z,37.72
2023-12-17T03:37:57.999Z,37.74
2023-12-17T03:38:29.450Z,37.94
2023-12-17T03:39:00.950Z,37.96
2023-12-17T03:39:32.417Z,37.83
2023-12-17T03:40:03.877Z,37.62
2023-12-17T03:40:35.325Z,37.89
2023-12-17T03:41:06.766Z,38.10
2023-12-17T03:41:38.252Z,38.01
2023-12-17T03:42:09.750Z,37.85
2023-12-17T03:42:41.194Z,37.86
2023-12-17T03:43:12.667Z,38.19
2023-12-17T03:43:44.099Z,37.77
2023-12-17T03:44:15.535Z,38.26
2023-12-17T03:44:47.021Z,38.06
2023-12-17T03:45:18.510Z,37.94
2023-12-17T03:45:49.975Z,38.11
2023-12-17T03:46:21.414Z,38.12
2023-12-17T03:46:52.876Z,37.90
2023-12-17T03:47:24.336Z,38.09
2023-12-17T03:47:55.892Z,37.80
2023-12-17T03:48:27.459Z,38.14
2023-12-17T03:48:59.215Z,38.41
2023-12-17T03:49:30.781Z,38.16
2023-12-17T03:50:02.278Z,37.92
2023-12-17T03:50:33.730Z,38.25
2023-12-17T03:51:05.379Z,38.24
2023-12-17T03:51:36.959Z,37.96
2023-12-17T03:52:08.398Z,37.97
2023-12-17T03:52:39.852Z,38.39
2023-12-17T03:53:11.288Z,38.06
2023-12-17T03:53:42.735Z,38.33
2023-12-17T03:54:14.229Z,38.19
2023-12-17T03:54:45.740Z,37.99
2023-12-17T03:55:17.183Z,38.02
2023-12-17T03:55:48.646Z,38.04
2023-12-17T03:56:20.088Z,38.09
2023-12-17T03:56:51.528Z,38.38
2023-12-17T03:57:23.063Z,37.93
2023-12-17T03:57:54.576Z,37.99
2023-12-17T03:58:26.015Z,38.09
2023-12-17T03:58:57.455Z,38.17
2023-12-17T03:59:28.893Z,38.24
2023-12-17T04:00:00.438Z,38.43
2023-12-17T04:00:32.055Z,38.20
2023-12-17T04:01:03.616Z,37.88
2023-12-17T04:01:35.143Z,37.74
2023-12-17T04:02:06.619Z,37.82
2023-12-17T04:02:38.107Z,38.06
2023-12-17T04:03:09.663Z,38.01
2023-12-17T04:03:41.282Z,38.53
2023-12-17T04:04:12.820Z,38.13
2023-12-17T04:04:44.304Z,38.02
2023-12-17T04:05:15.836Z,38.08
2023-12-17T04:05:47.340Z,37.83
2023-12-17T04:06:18.793Z,37.69
2023-12-17T04:06:50.230Z,38.18
2023-12-17T04:07:21.663Z,38.16
2023-12-17T04:07:53.102Z,38.45
2023-12-17T04:08:24.540Z,38.14
2023-12-17T04:08:56.236Z,38.45
2023-12-17T04:09:27.873Z,37.94
2023-12-17T04:09:59.467Z,37.76
2023-12-17T04:10:30.964Z,38.31
2023-12-17T04:11:02.410Z,38.07
2023-12-17T04:11:33.835Z,37.91
2023-12-17T04:12:05.301Z,38.23
2023-12-17T04:12:36.749Z,37.98
2023-12-17T04:13:08.193Z,37.67
2023-12-17T04:13:39.627Z,38.00
2023-12-17T04:14:11.071Z,38.04
2023-12-17T04:14:42.578Z,37.96
2023-12-17T04:15:14.074Z,37.71
2023-12-17T04:15:45.502Z,37.68
2023-12-17T04:16:16.933Z,38.05
2023-12-17T04:16:48.383Z,38.14
2023-12-17T04:17:19.824Z,38.23
2023-12-17T04:17:51.329Z,37.91
2023-12-17T04:18:22.990Z,38.24
2023-12-17T04:18:54.660Z,38.21
2023-12-17T04:19:26.345Z,38.13
2023-12-17T04:19:57.905Z,37.74
2023-12-17T04:20:29.342Z,37.91
2023-12-17T04:21:00.795Z,38.13
2023-12-17T04:21:32.355Z,38.20
2023-12-17T04:22:03.808Z,38.27
2023-12-17T04:22:35.265Z,38.20
2023-12-17T04:23:06.710Z,37.89
2023-12-17T04:23:38.146Z,38.37
2023-12-17T04:24:09.668Z,38.00
2023-12-17T04:24:41.181Z,37.92
2023-12-17T04:25:12.643Z,38.38
2023-12-17T04:25:44.098Z,37.83
2023-12-17T04:26:15.551Z,37.89
2023-12-17T04:26:47.010Z,37.78
2023-12-17T04:27:18.469Z,38.00
2023-12-17T04:27:49.935Z,38.02
2023-12-17T04:28:21.365Z,38.19
2023-12-17T04:28:52.958Z,37.93
2023-12-17T04:29:24.485Z,37.89
2023-12-17T04:29:55.949Z,38.21
2023-12-17T04:30:27.481Z,38.15
2023-12-17T04:30:59.006Z,38.13
2023-12-17T04:31:30.479Z,38.03
2023-12-17T04:32:01.930Z,38.32
2023-12-17T04:32:33.418Z,37.83
2023-12-17T04:33:05.059Z,38.07
2023-12-17T04:33:36.723Z,38.47
2023-12-17T04:34:08.342Z,38.28
2023-12-17T04:34:39.926Z,38.17
2023-12-17T04:35:11.418Z,38.21
2023-12-17T04:35:42.897Z,38.25
2023-12-17T04:36:14.412Z,37.68
2023-12-17T04:36:45.870Z,38.07
2023-12-17T04:37:17.306Z,38.03
2023-12-17T04:37:48.727Z,37.74
2023-12-17T04:38:20.227Z,38.30
2023-12-17T04:38:51.722Z,37.95
2023-12-17T04:39:23.212Z,38.03
2023-12-17T04:39:54.646Z,38.02
2023-12-17T04:40:26.202Z,38.49
2023-12-17T04:40:57.674Z,38.49
2023-12-17T04:41:29.101Z,38.15
2023-12-17T04:42:00.650Z,38.00
2023-12-17T04:42:34.943Z,38.02
2023-12-17T04:43:06.725Z,38.02
2023-12-17T04:43:38.280Z,38.47
2023-12-17T04:44:09.714Z,38.10
2023-12-17T04:44:41.156Z,37.72
2023-12-17T04:45:12.583Z,37.80
2023-12-17T04:45:44.042Z,38.30
2023-12-17T04:46:15.479Z,38.11
2023-12-17T04:46:46.924Z,38.03
2023-12-17T04:47:18.365Z,37.96
2023-12-17T04:47:49.981Z,38.10
2023-12-17T04:48:21.709Z,38.03
2023-12-17T04:48:53.308Z,38.54
2023-12-17T04:49:24.977Z,38.22
2023-12-17T04:49:56.496Z,37.78
2023-12-17T04:50:27.954Z,38.32
2023-12-17T04:50:59.406Z,37.96
2023-12-17T04:51:30.896Z,38.27
2023-12-17T04:52:02.324Z,37.82
2023-12-17T04:52:36.436Z,38.33
2023-12-17T04:53:08.252Z,37.99
2023-12-17T04:53:39.685Z,38.39
2023-12-17T04:54:11.137Z,38.20
2023-12-17T04:54:42.635Z,37.90
2023-12-17T04:55:14.058Z,38.35
2023-12-17T04:55:45.535Z,38.34
2023-12-17T04:56:16.975Z,38.04
2023-12-17T04:56:48.532Z,38.40
2023-12-17T04:57:20.111Z,38.13
2023-12-17T04:57:51.590Z,37.82
2023-12-17T04:58:23.032Z,38.11
2023-12-17T04:58:54.471Z,38.45
2023-12-17T04:59:25.930Z,38.44
2023-12-17T04:59:57.408Z,38.56
2023-12-17T05:00:28.948Z,37.89
2023-12-17T05:01:00.738Z,38.06
2023-12-17T05:01:32.296Z,38.10
2023-12-17T05:02:03.795Z,38.08
2023-12-17T05:02:35.236Z,38.19
2023-12-17T05:03:09.893Z,38.10
2023-12-17T05:03:41.941Z,38.03
2023-12-17T05:04:13.886Z,38.35
2023-12-17T05:04:45.634Z,37.91
2023-12-17T05:05:17.164Z,37.91
2023-12-17T05:05:48.773Z,38.33
2023-12-17T05:06:20.345Z,38.16
2023-12-17T05:06:51.957Z,38.54
2023-12-17T05:07:23.439Z,38.17
2023-12-17T05:07:54.890Z,38.22
2023-12-17T05:08:26.326Z,38.42
2023-12-17T05:08:57.813Z,38.51
2023-12-17T05:09:29.293Z,38.03
2023-12-17T05:10:00.749Z,38.43
2023-12-17T05:10:32.177Z,38.15
2023-12-17T05:11:03.620Z,38.03
2023-12-17T05:11:35.123Z,38.54
2023-12-17T05:12:06.699Z,37.99
2023-12-17T05:12:38.197Z,38.23
2023-12-17T05:13:09.635Z,38.05
2023-12-17T05:13:41.074Z,38.16
2023-12-17T05:14:12.521Z,38.29
2023-12-17T05:14:44.038Z,38.05
2023-12-17T05:15:15.784Z,38.16
2023-12-17T05:15:47.333Z,37.83
2023-12-17T05:16:18.808Z,38.05
2023-12-17T05:16:50.276Z,38.13
2023-12-17T05:17:21.895Z,38.14
2023-12-17T05:17:53.663Z,38.32
2023-12-17T05:18:25.275Z,38.41
2023-12-17T05:18:57.002Z,38.22
2023-12-17T05:19:28.697Z,38.28
2023-12-17T05:20:00.256Z,38.32
2023-12-17T05:20:31.765Z,38.09
2023-12-17T05:21:03.296Z,38.08
2023-12-17T05:21:34.813Z,38.68
2023-12-17T05:22:06.250Z,38.33
2023-12-17T05:22:37.686Z,38.27
2023-12-17T05:23:09.149Z,38.18
2023-12-17T05:23:40.608Z,37.86
2023-12-17T05:24:12.106Z,38.08
2023-12-17T05:24:43.707Z,38.58
2023-12-17T05:25:16.694Z,38.21
2023-12-17T05:25:48.520Z,38.36
2023-12-17T05:26:19.974Z,38.26
2023-12-17T05:26:51.435Z,38.28
2023-12-17T05:27:22.965Z,38.46
2023-12-17T05:27:54.446Z,38.54
2023-12-17T05:28:25.875Z,38.53
2023-12-17T05:28:57.303Z,38.46
2023-12-17T05:29:28.852Z,38.25
2023-12-17T05:30:00.418Z,38.30
2023-12-17T05:30:32.063Z,38.40
2023-12-17T05:31:03.634Z,38.45
2023-12-17T05:31:35.161Z,38.37
2023-12-17T05:32:06.651Z,38.38
2023-12-17T05:32:38.108Z,38.12
2023-12-17T05:33:09.658Z,38.15
2023-12-17T05:33:41.288Z,38.07
2023-12-17T05:34:12.930Z,38.36
2023-12-17T05:34:44.516Z,38.31
2023-12-17T05:35:16.039Z,38.34
2023-12-17T05:35:47.584Z,37.87
2023-12-17T05:36:19.098Z,38.37
2023-12-17T05:36:50.550Z,37.85
2023-12-17T05:37:21.997Z,38.28
2023-12-17T05:37:53.434Z,38.77
2023-12-17T05:38:24.874Z,38.05
2023-12-17T05:38:56.316Z,38.47
2023-12-17T05:39:27.907Z,38.37
2023-12-17T05:39:59.513Z,38.29
2023-12-17T05:40:31.037Z,38.58
2023-12-17T05:41:02.489Z,38.22
2023-12-17T05:41:33.918Z,38.50
2023-12-17T05:42:05.362Z,38.31
2023-12-17T05:42:36.825Z,38.19
2023-12-17T05:43:08.255Z,38.57
2023-12-17T05:43:39.702Z,38.09
2023-12-17T05:44:11.146Z,38.12
2023-12-17T05:44:42.645Z,38.28
2023-12-17T05:45:14.160Z,38.53
2023-12-17T05:45:51.287Z,38.06
2023-12-17T05:46:29.823Z,38.69
2023-12-17T05:47:01.277Z,38.28
2023-12-17T05:47:32.944Z,38.27
2023-12-17T05:48:04.523Z,38.48
2023-12-17T05:48:36.189Z,38.03
2023-12-17T05:49:07.956Z,38.20
2023-12-17T05:49:39.820Z,37.99
2023-12-17T05:50:11.598Z,38.39
2023-12-17T05:50:43.180Z,38.21
2023-12-17T05:51:14.662Z,38.50
2023-12-17T05:51:46.152Z,38.25
2023-12-17T05:52:17.653Z,38.35
2023-12-17T05:52:49.106Z,38.43
2023-12-17T05:53:24.862Z,38.37
2023-12-17T05:54:01.346Z,37.82
2023-12-17T05:54:32.923Z,37.95
2023-12-17T05:55:04.391Z,38.44
2023-12-17T05:55:35.829Z,38.68
2023-12-17T05:56:07.280Z,38.38
2023-12-17T05:56:38.728Z,38.66
2023-12-17T05:57:10.216Z,38.31
2023-12-17T05:57:41.874Z,38.29
2023-12-17T05:58:13.446Z,38.43
2023-12-17T05:58:45.017Z,38.21
2023-12-17T05:59:16.628Z,38.20
2023-12-17T05:59:48.153Z,38.47
2023-12-17T06:00:19.673Z,38.09
2023-12-17T06:00:51.210Z,38.37
2023-12-17T06:01:22.764Z,38.61
2023-12-17T06:01:54.251Z,38.59
2023-12-17T06:02:25.720Z,38.20
2023-12-17T06:02:57.186Z,38.47
2023-12-17T06:03:28.714Z,38.28
2023-12-17T06:04:00.324Z,37.89
2023-12-17T06:04:31.835Z,38.62
2023-12-17T06:05:03.282Z,37.96
2023-12-17T06:05:34.755Z,38.77
2023-12-17T06:06:06.252Z,38.23
2023-12-17T06:06:37.766Z,38.59
2023-12-17T06:07:09.369Z,38.74
2023-12-17T06:07:41.058Z,38.24
2023-12-17T06:08:12.630Z,38.24
2023-12-17T06:08:44.172Z,38.26
2023-12-17T06:09:15.708Z,38.30
2023-12-17T06:09:47.301Z,38.64
2023-12-17T06:10:18.732Z,38.30
2023-12-17T06:10:50.172Z,38.35
2023-12-17T06:11:21.605Z,38.03
2023-12-17T06:11:53.092Z,38.22
2023-12-17T06:12:24.598Z,38.10
2023-12-17T06:12:56.079Z,37.77
2023-12-17T06:13:27.563Z,37.78
2023-12-17T06:13:59.012Z,38.44
2023-12-17T06:14:30.468Z,37.90
2023-12-17T06:15:01.973Z,38.65
2023-12-17T06:15:33.475Z,38.27
2023-12-17T06:16:04.972Z,38.65
2023-12-17T06:16:36.438Z,38.07
2023-12-17T06:17:07.875Z,38.37
2023-12-17T06:17:39.559Z,38.51
2023-12-17T06:18:11.354Z,38.47
2023-12-17T06:18:43.018Z,38.21
2023-12-17T06:19:14.614Z,38.46
2023-12-17T06:19:46.213Z,38.38
2023-12-17T06:20:17.652Z,38.50
2023-12-17T06:20:49.525Z,38.24
2023-12-17T06:21:21.023Z,38.25
2023-12-17T06:21:52.470Z,38.90
2023-12-17T06:22:23.916Z,38.32
2023-12-17T06:22:55.440Z,38.56
2023-12-17T06:23:27.002Z,38.35
2023-12-17T06:23:58.573Z,38.28
2023-12-17T06:24:30.276Z,38.80
2023-12-17T06:25:01.730Z,38.29
2023-12-17T06:25:33.171Z,38.06
2023-12-17T06:26:04.604Z,38.67
2023-12-17T06:26:36.042Z,38.59
2023-12-17T06:27:07.488Z,38.34
2023-12-17T06:27:39.270Z,38.94
2023-12-17T06:28:10.858Z,38.31
2023-12-17T06:28:42.295Z,38.27
2023-12-17T06:29:13.755Z,38.05
2023-12-17T06:29:45.206Z,38.56
2023-12-17T06:30:16.846Z,38.32
2023-12-17T06:30:48.593Z,38.24
2023-12-17T06:31:20.387Z,38.00
2023-12-17T06:31:51.881Z,37.97
2023-12-17T06:32:23.395Z,38.58
2023-12-17T06:32:55.102Z,38.33
2023-12-17T06:33:26.775Z,38.57
2023-12-17T06:33:58.442Z,38.44
2023-12-17T06:34:30.047Z,38.61
2023-12-17T06:35:01.568Z,38.47
2023-12-17T06:35:33.032Z,38.75
2023-12-17T06:36:04.551Z,38.07
2023-12-17T06:36:36.024Z,38.20
2023-12-17T06:37:07.553Z,38.61
2023-12-17T06:37:39.268Z,38.39
2023-12-17T06:38:10.908Z,38.52
2023-12-17T06:38:42.403Z,37.98
2023-12-17T06:39:13.953Z,38.45
2023-12-17T06:39:45.407Z,38.08
2023-12-17T06:40:16.859Z,38.79
2023-12-17T06:40:48.290Z,38.00
2023-12-17T06:41:19.721Z,38.66
2023-12-17T06:41:51.350Z,38.40
2023-12-17T06:42:22.880Z,38.43
2023-12-17T06:42:54.317Z,38.35
2023-12-17T06:43:25.742Z,38.07
2023-12-17T06:43:57.172Z,38.04
2023-12-17T06:44:28.620Z,38.27
2023-12-17T06:45:00.200Z,38.29
2023-12-17T06:45:31.783Z,38.07
2023-12-17T06:46:03.246Z,37.98
2023-12-17T06:46:34.739Z,38.01